sensor_id;sensor_type;location;lat;lon;timestamp;pressure;altitude;pressure_sealevel;temperature;humidity
73338;BME280;61575;49.908;35.556;2023-02-23T00:03:01;99515.19;;;-9.14;66.04
73338;BME280;61575;49.908;35.556;2023-02-23T00:06:04;99523.03;;;-9.16;66.12
73338;BME280;61575;49.908;35.556;2023-02-23T00:09:06;99525.63;;;-9.16;66.20
73338;BME280;61575;49.908;35.556;2023-02-23T00:12:13;99527.38;;;-9.16;66.26
73338;BME280;61575;49.908;35.556;2023-02-23T00:15:17;99531.72;;;-9.17;66.16
73338;BME280;61575;49.908;35.556;2023-02-23T00:18:19;99531.81;;;-9.20;65.85
73338;BME280;61575;49.908;35.556;2023-02-23T00:21:26;99526.84;;;-9.28;66.26
73338;BME280;61575;49.908;35.556;2023-02-23T00:24:30;99527.75;;;-9.29;65.92
73338;BME280;61575;49.908;35.556;2023-02-23T00:27:32;99532.84;;;-9.26;66.45
73338;BME280;61575;49.908;35.556;2023-02-23T00:30:34;99535.56;;;-9.29;66.47
73338;BME280;61575;49.908;35.556;2023-02-23T00:33:36;99535.66;;;-9.32;66.21
73338;BME280;61575;49.908;35.556;2023-02-23T00:36:38;99535.91;;;-9.41;66.76
73338;BME280;61575;49.908;35.556;2023-02-23T00:39:40;99535.78;;;-9.36;66.19
73338;BME280;61575;49.908;35.556;2023-02-23T00:42:46;99545.41;;;-9.40;66.41
73338;BME280;61575;49.908;35.556;2023-02-23T00:45:48;99548.00;;;-9.40;66.31
73338;BME280;61575;49.908;35.556;2023-02-23T00:48:50;99551.63;;;-9.44;66.48
73338;BME280;61575;49.908;35.556;2023-02-23T00:51:52;99551.84;;;-9.51;66.59
73338;BME280;61575;49.908;35.556;2023-02-23T00:54:54;99556.13;;;-9.49;66.46
73338;BME280;61575;49.908;35.556;2023-02-23T00:57:56;99556.03;;;-9.46;66.36
73338;BME280;61575;49.908;35.556;2023-02-23T01:00:59;99557.88;;;-9.49;66.47
73338;BME280;61575;49.908;35.556;2023-02-23T01:04:01;99559.53;;;-9.47;66.29
73338;BME280;61575;49.908;35.556;2023-02-23T01:07:04;99560.50;;;-9.51;66.42
73338;BME280;61575;49.908;35.556;2023-02-23T01:10:07;99564.13;;;-9.56;66.55
73338;BME280;61575;49.908;35.556;2023-02-23T01:13:22;99571.22;;;-9.62;66.80
73338;BME280;61575;49.908;35.556;2023-02-23T01:16:28;99561.94;;;-9.70;66.95
73338;BME280;61575;49.908;35.556;2023-02-23T01:19:30;99568.75;;;-9.66;67.04
73338;BME280;61575;49.908;35.556;2023-02-23T01:22:36;99573.13;;;-9.68;66.76
73338;BME280;61575;49.908;35.556;2023-02-23T01:25:42;99575.72;;;-9.68;66.95
73338;BME280;61575;49.908;35.556;2023-02-23T01:28:52;99576.59;;;-9.68;66.83
73338;BME280;61575;49.908;35.556;2023-02-23T01:31:54;99582.66;;;-9.69;66.35
73338;BME280;61575;49.908;35.556;2023-02-23T01:34:58;99579.38;;;-9.75;66.67
73338;BME280;61575;49.908;35.556;2023-02-23T01:38:00;99576.66;;;-9.71;66.79
73338;BME280;61575;49.908;35.556;2023-02-23T01:41:02;99582.97;;;-9.79;66.69
73338;BME280;61575;49.908;35.556;2023-02-23T01:47:13;99588.16;;;-9.79;66.69
73338;BME280;61575;49.908;35.556;2023-02-23T01:50:16;99586.41;;;-9.79;66.86
73338;BME280;61575;49.908;35.556;2023-02-23T01:53:18;99594.53;;;-9.91;67.11
73338;BME280;61575;49.908;35.556;2023-02-23T01:56:29;99593.06;;;-10.01;67.18
73338;BME280;61575;49.908;35.556;2023-02-23T01:59:38;99599.91;;;-9.97;67.35
73338;BME280;61575;49.908;35.556;2023-02-23T02:02:40;99600.84;;;-10.00;67.35
73338;BME280;61575;49.908;35.556;2023-02-23T02:05:42;99614.66;;;-9.99;67.35
73338;BME280;61575;49.908;35.556;2023-02-23T02:08:51;99612.03;;;-9.98;66.90
73338;BME280;61575;49.908;35.556;2023-02-23T02:11:55;99620.72;;;-9.99;67.16
73338;BME280;61575;49.908;35.556;2023-02-23T02:14:58;99618.03;;;-9.96;66.99
73338;BME280;61575;49.908;35.556;2023-02-23T02:38:31;99660.81;;;-10.09;67.09
73338;BME280;61575;49.908;35.556;2023-02-23T02:41:46;99658.25;;;-10.10;67.48
73338;BME280;61575;49.908;35.556;2023-02-23T02:51:26;99667.19;;;-10.22;67.26
73338;BME280;61575;49.908;35.556;2023-02-23T02:54:52;99671.44;;;-10.19;67.81
73338;BME280;61575;49.908;35.556;2023-02-23T02:57:58;99680.25;;;-10.25;67.60
73338;BME280;61575;49.908;35.556;2023-02-23T03:01:12;99665.56;;;-10.26;67.49
73338;BME280;61575;49.908;35.556;2023-02-23T03:04:33;99674.38;;;-10.33;67.68
73338;BME280;61575;49.908;35.556;2023-02-23T03:11:57;99684.63;;;-10.27;67.75
73338;BME280;61575;49.908;35.556;2023-02-23T03:15:37;99684.72;;;-10.32;67.67
73338;BME280;61575;49.908;35.556;2023-02-23T03:19:19;99688.91;;;-10.26;67.49
73338;BME280;61575;49.908;35.556;2023-02-23T03:23:11;99689.34;;;-10.44;67.12
73338;BME280;61575;49.908;35.556;2023-02-23T03:26:51;99695.09;;;-10.32;67.75
73338;BME280;61575;49.908;35.556;2023-02-23T03:30:23;99699.81;;;-10.47;67.87
73338;BME280;61575;49.908;35.556;2023-02-23T03:33:54;99699.41;;;-10.69;67.87
73338;BME280;61575;49.908;35.556;2023-02-23T03:37:21;99694.91;;;-10.61;67.62
73338;BME280;61575;49.908;35.556;2023-02-23T03:40:44;99700.25;;;-10.67;68.01
73338;BME280;61575;49.908;35.556;2023-02-23T03:44:12;99697.69;;;-10.69;68.37
73338;BME280;61575;49.908;35.556;2023-02-23T03:47:37;99695.25;;;-10.76;68.37
73338;BME280;61575;49.908;35.556;2023-02-23T03:51:03;99700.47;;;-10.78;68.16
73338;BME280;61575;49.908;35.556;2023-02-23T03:54:32;99709.06;;;-10.76;68.16
73338;BME280;61575;49.908;35.556;2023-02-23T03:57:57;99714.38;;;-10.80;68.34
73338;BME280;61575;49.908;35.556;2023-02-23T04:01:22;99715.09;;;-10.74;68.56
73338;BME280;61575;49.908;35.556;2023-02-23T04:04:45;99721.16;;;-10.75;68.54
73338;BME280;61575;49.908;35.556;2023-02-23T04:08:08;99710.94;;;-10.82;68.63
73338;BME280;61575;49.908;35.556;2023-02-23T04:11:50;99712.84;;;-10.91;68.72
73338;BME280;61575;49.908;35.556;2023-02-23T04:15:38;99720.75;;;-10.97;68.54
73338;BME280;61575;49.908;35.556;2023-02-23T04:18:38;99721.53;;;-10.93;68.62
73338;BME280;61575;49.908;35.556;2023-02-23T04:21:40;99724.97;;;-10.91;68.49
73338;BME280;61575;49.908;35.556;2023-02-23T04:24:42;99723.25;;;-10.92;68.19
73338;BME280;61575;49.908;35.556;2023-02-23T04:27:44;99724.94;;;-10.90;68.20
73338;BME280;61575;49.908;35.556;2023-02-23T04:30:47;99731.94;;;-10.95;68.22
73338;BME280;61575;49.908;35.556;2023-02-23T04:33:49;99742.56;;;-11.07;68.40
73338;BME280;61575;49.908;35.556;2023-02-23T04:36:51;99742.56;;;-11.07;68.56
73338;BME280;61575;49.908;35.556;2023-02-23T04:39:53;99743.53;;;-11.12;68.79
73338;BME280;61575;49.908;35.556;2023-02-23T04:42:56;99750.19;;;-10.99;69.30
73338;BME280;61575;49.908;35.556;2023-02-23T04:45:57;99754.44;;;-10.95;69.20
73338;BME280;61575;49.908;35.556;2023-02-23T04:48:59;99759.63;;;-10.95;69.22
73338;BME280;61575;49.908;35.556;2023-02-23T04:52:01;99762.97;;;-10.90;68.88
73338;BME280;61575;49.908;35.556;2023-02-23T04:55:08;99766.28;;;-10.82;69.09
73338;BME280;61575;49.908;35.556;2023-02-23T04:58:13;99767.88;;;-10.76;69.04
73338;BME280;61575;49.908;35.556;2023-02-23T05:01:16;99774.63;;;-10.68;68.70
73338;BME280;61575;49.908;35.556;2023-02-23T05:04:18;99771.09;;;-10.64;68.73
73338;BME280;61575;49.908;35.556;2023-02-23T05:07:20;99778.81;;;-10.61;68.91
73338;BME280;61575;49.908;35.556;2023-02-23T05:10:23;99775.97;;;-10.50;68.90
73338;BME280;61575;49.908;35.556;2023-02-23T05:13:25;99779.38;;;-10.46;68.86
73338;BME280;61575;49.908;35.556;2023-02-23T05:16:27;99784.38;;;-10.37;68.76
73338;BME280;61575;49.908;35.556;2023-02-23T05:19:28;99784.06;;;-10.64;69.22
73338;BME280;61575;49.908;35.556;2023-02-23T05:22:30;99789.75;;;-10.46;69.99
73338;BME280;61575;49.908;35.556;2023-02-23T05:25:32;99789.78;;;-10.48;69.98
73338;BME280;61575;49.908;35.556;2023-02-23T05:28:36;99805.38;;;-10.49;69.63
73338;BME280;61575;49.908;35.556;2023-02-23T05:31:38;99810.41;;;-10.42;70.35
73338;BME280;61575;49.908;35.556;2023-02-23T05:34:40;99811.91;;;-10.30;70.50
73338;BME280;61575;49.908;35.556;2023-02-23T05:37:42;99819.63;;;-10.27;69.82
73338;BME280;61575;49.908;35.556;2023-02-23T05:40:45;99818.38;;;-10.09;69.65
73338;BME280;61575;49.908;35.556;2023-02-23T05:43:48;99823.31;;;-9.99;69.54
73338;BME280;61575;49.908;35.556;2023-02-23T05:46:51;99822.41;;;-9.96;69.60
73338;BME280;61575;49.908;35.556;2023-02-23T05:49:53;99824.13;;;-9.97;69.55
73338;BME280;61575;49.908;35.556;2023-02-23T05:52:55;99830.69;;;-9.80;69.33
73338;BME280;61575;49.908;35.556;2023-02-23T05:55:57;99838.94;;;-9.63;69.00
73338;BME280;61575;49.908;35.556;2023-02-23T05:58:59;99845.03;;;-9.64;68.80
73338;BME280;61575;49.908;35.556;2023-02-23T06:02:03;99841.53;;;-9.63;68.38
73338;BME280;61575;49.908;35.556;2023-02-23T06:05:10;99852.34;;;-9.44;68.06
73338;BME280;61575;49.908;35.556;2023-02-23T06:08:12;99849.06;;;-9.51;67.82
73338;BME280;61575;49.908;35.556;2023-02-23T06:11:14;99854.59;;;-9.31;67.32
73338;BME280;61575;49.908;35.556;2023-02-23T06:14:16;99855.78;;;-9.10;67.29
73338;BME280;61575;49.908;35.556;2023-02-23T06:17:18;99850.59;;;-9.10;67.36
73338;BME280;61575;49.908;35.556;2023-02-23T06:20:20;99851.66;;;-8.84;66.77
73338;BME280;61575;49.908;35.556;2023-02-23T06:23:21;99859.13;;;-8.72;66.26
73338;BME280;61575;49.908;35.556;2023-02-23T06:26:23;99862.16;;;-8.56;66.09
73338;BME280;61575;49.908;35.556;2023-02-23T06:29:25;99856.38;;;-8.35;65.61
73338;BME280;61575;49.908;35.556;2023-02-23T06:32:27;99867.13;;;-8.47;65.92
73338;BME280;61575;49.908;35.556;2023-02-23T06:35:29;99857.75;;;-8.23;65.20
73338;BME280;61575;49.908;35.556;2023-02-23T06:38:33;99862.06;;;-8.22;65.07
73338;BME280;61575;49.908;35.556;2023-02-23T06:41:35;99859.06;;;-8.09;64.46
73338;BME280;61575;49.908;35.556;2023-02-23T06:44:37;99859.91;;;-7.79;64.13
73338;BME280;61575;49.908;35.556;2023-02-23T06:47:40;99868.25;;;-7.68;63.60
73338;BME280;61575;49.908;35.556;2023-02-23T06:50:42;99871.50;;;-7.61;63.28
73338;BME280;61575;49.908;35.556;2023-02-23T06:53:44;99868.97;;;-7.36;62.68
73338;BME280;61575;49.908;35.556;2023-02-23T06:56:46;99870.84;;;-7.13;61.98
73338;BME280;61575;49.908;35.556;2023-02-23T06:59:48;99876.97;;;-6.89;62.08
73338;BME280;61575;49.908;35.556;2023-02-23T07:02:50;99876.09;;;-6.90;61.07
73338;BME280;61575;49.908;35.556;2023-02-23T07:05:52;99875.06;;;-6.59;60.92
73338;BME280;61575;49.908;35.556;2023-02-23T07:08:57;99877.56;;;-6.56;59.88
73338;BME280;61575;49.908;35.556;2023-02-23T07:11:59;99884.63;;;-6.35;59.76
73338;BME280;61575;49.908;35.556;2023-02-23T07:15:01;99876.25;;;-6.21;59.31
73338;BME280;61575;49.908;35.556;2023-02-23T07:18:03;99879.88;;;-5.79;59.27
73338;BME280;61575;49.908;35.556;2023-02-23T07:21:05;99884.50;;;-5.85;58.17
73338;BME280;61575;49.908;35.556;2023-02-23T07:24:07;99895.84;;;-5.41;57.85
73338;BME280;61575;49.908;35.556;2023-02-23T07:27:09;99896.28;;;-5.30;57.63
73338;BME280;61575;49.908;35.556;2023-02-23T07:30:11;99898.09;;;-5.32;56.82
73338;BME280;61575;49.908;35.556;2023-02-23T07:33:15;99906.25;;;-5.18;56.02
73338;BME280;61575;49.908;35.556;2023-02-23T07:36:16;99903.25;;;-4.87;55.62
73338;BME280;61575;49.908;35.556;2023-02-23T07:39:18;99900.09;;;-4.75;55.40
73338;BME280;61575;49.908;35.556;2023-02-23T07:42:20;99899.38;;;-4.58;54.92
73338;BME280;61575;49.908;35.556;2023-02-23T07:45:22;99899.25;;;-4.34;54.44
73338;BME280;61575;49.908;35.556;2023-02-23T07:48:25;99906.06;;;-4.51;53.38
73338;BME280;61575;49.908;35.556;2023-02-23T07:51:27;99907.84;;;-4.51;53.25
73338;BME280;61575;49.908;35.556;2023-02-23T07:54:29;99906.44;;;-4.19;53.52
73338;BME280;61575;49.908;35.556;2023-02-23T07:57:32;99912.03;;;-4.27;52.36
73338;BME280;61575;49.908;35.556;2023-02-23T08:00:35;99915.97;;;-4.57;52.81
73338;BME280;61575;49.908;35.556;2023-02-23T08:03:37;99921.72;;;-4.29;52.13
73338;BME280;61575;49.908;35.556;2023-02-23T08:06:39;99918.53;;;-4.36;51.17
73338;BME280;61575;49.908;35.556;2023-02-23T08:09:41;99914.72;;;-3.89;51.58
73338;BME280;61575;49.908;35.556;2023-02-23T08:12:44;99922.16;;;-3.43;51.31
73338;BME280;61575;49.908;35.556;2023-02-23T08:15:46;99924.22;;;-3.30;49.87
73338;BME280;61575;49.908;35.556;2023-02-23T08:18:48;99931.41;;;-3.53;49.94
73338;BME280;61575;49.908;35.556;2023-02-23T08:21:50;99928.66;;;-3.14;50.03
73338;BME280;61575;49.908;35.556;2023-02-23T08:24:52;99936.13;;;-2.87;49.38
73338;BME280;61575;49.908;35.556;2023-02-23T08:27:54;99936.28;;;-2.90;48.86
73338;BME280;61575;49.908;35.556;2023-02-23T08:30:56;99939.19;;;-3.32;47.49
73338;BME280;61575;49.908;35.556;2023-02-23T08:34:00;99943.63;;;-2.80;48.78
73338;BME280;61575;49.908;35.556;2023-02-23T08:37:02;99940.09;;;-2.44;48.30
73338;BME280;61575;49.908;35.556;2023-02-23T08:40:05;99941.41;;;-2.35;47.53
73338;BME280;61575;49.908;35.556;2023-02-23T08:43:06;99951.09;;;-2.36;47.20
73338;BME280;61575;49.908;35.556;2023-02-23T08:46:08;99949.06;;;-2.14;45.63
73338;BME280;61575;49.908;35.556;2023-02-23T08:49:10;99954.25;;;-2.29;46.05
73338;BME280;61575;49.908;35.556;2023-02-23T08:52:12;99951.31;;;-2.41;45.58
73338;BME280;61575;49.908;35.556;2023-02-23T08:55:14;99962.69;;;-2.57;46.10
73338;BME280;61575;49.908;35.556;2023-02-23T08:58:18;99953.84;;;-2.74;45.87
73338;BME280;61575;49.908;35.556;2023-02-23T09:01:20;99959.19;;;-2.41;46.94
73338;BME280;61575;49.908;35.556;2023-02-23T09:04:23;99966.31;;;-2.43;45.47
73338;BME280;61575;49.908;35.556;2023-02-23T09:07:25;99974.75;;;-2.53;44.92
73338;BME280;61575;49.908;35.556;2023-02-23T09:10:27;99969.53;;;-2.03;46.15
73338;BME280;61575;49.908;35.556;2023-02-23T09:13:29;99969.59;;;-1.87;45.87
73338;BME280;61575;49.908;35.556;2023-02-23T09:16:31;99972.22;;;-1.87;45.50
73338;BME280;61575;49.908;35.556;2023-02-23T09:19:34;99968.59;;;-1.85;45.95
73338;BME280;61575;49.908;35.556;2023-02-23T09:22:35;99964.84;;;-1.81;45.29
73338;BME280;61575;49.908;35.556;2023-02-23T09:25:41;99961.38;;;-1.81;45.31
73338;BME280;61575;49.908;35.556;2023-02-23T09:28:44;99975.03;;;-1.90;45.65
73338;BME280;61575;49.908;35.556;2023-02-23T09:31:46;99970.03;;;-1.79;45.01
73338;BME280;61575;49.908;35.556;2023-02-23T09:34:49;99976.41;;;-1.83;45.46
73338;BME280;61575;49.908;35.556;2023-02-23T09:37:54;99977.31;;;-1.51;45.46
73338;BME280;61575;49.908;35.556;2023-02-23T09:40:56;99976.88;;;-1.59;45.09
73338;BME280;61575;49.908;35.556;2023-02-23T09:44:01;99974.09;;;-1.89;46.31
73338;BME280;61575;49.908;35.556;2023-02-23T09:50:30;99969.41;;;-1.67;45.79
73338;BME280;61575;49.908;35.556;2023-02-23T09:53:38;99976.31;;;-1.49;45.44
73338;BME280;61575;49.908;35.556;2023-02-23T09:56:46;99981.69;;;-1.34;45.06
73338;BME280;61575;49.908;35.556;2023-02-23T09:59:48;99978.19;;;-1.35;45.18
73338;BME280;61575;49.908;35.556;2023-02-23T10:03:10;99973.00;;;-1.36;45.43
73338;BME280;61575;49.908;35.556;2023-02-23T10:06:16;99973.06;;;-1.54;43.69
73338;BME280;61575;49.908;35.556;2023-02-23T10:16:35;99972.75;;;-1.48;44.16
73338;BME280;61575;49.908;35.556;2023-02-23T10:19:35;99978.03;;;-1.32;45.27
73338;BME280;61575;49.908;35.556;2023-02-23T10:22:43;99977.59;;;-1.24;45.20
73338;BME280;61575;49.908;35.556;2023-02-23T10:25:49;99963.50;;;-1.23;44.46
73338;BME280;61575;49.908;35.556;2023-02-23T10:28:56;99966.72;;;-1.50;44.78
73338;BME280;61575;49.908;35.556;2023-02-23T10:32:03;99968.94;;;-1.42;45.02
73338;BME280;61575;49.908;35.556;2023-02-23T10:35:12;99967.13;;;-1.90;44.61
73338;BME280;61575;49.908;35.556;2023-02-23T10:38:16;99969.47;;;-1.68;45.79
73338;BME280;61575;49.908;35.556;2023-02-23T10:41:19;99969.81;;;-1.74;45.08
73338;BME280;61575;49.908;35.556;2023-02-23T10:44:23;99974.38;;;-1.78;45.32
73338;BME280;61575;49.908;35.556;2023-02-23T10:47:31;99975.19;;;-1.93;44.97
73338;BME280;61575;49.908;35.556;2023-02-23T10:50:36;99985.72;;;-1.93;45.42
73338;BME280;61575;49.908;35.556;2023-02-23T10:53:39;99979.13;;;-1.85;45.54
73338;BME280;61575;49.908;35.556;2023-02-23T10:56:45;99970.03;;;-1.79;46.04
73338;BME280;61575;49.908;35.556;2023-02-23T11:06:32;99964.81;;;-1.96;46.04
73338;BME280;61575;49.908;35.556;2023-02-23T11:09:35;99975.44;;;-2.15;46.32
73338;BME280;61575;49.908;35.556;2023-02-23T11:12:47;99969.47;;;-2.19;46.45
73338;BME280;61575;49.908;35.556;2023-02-23T11:16:02;99974.53;;;-2.31;45.99
73338;BME280;61575;49.908;35.556;2023-02-23T11:19:28;99980.38;;;-2.09;45.79
73338;BME280;61575;49.908;35.556;2023-02-23T11:22:35;99976.75;;;-2.24;46.08
73338;BME280;61575;49.908;35.556;2023-02-23T11:25:41;99975.22;;;-2.28;46.29
73338;BME280;61575;49.908;35.556;2023-02-23T11:28:45;99979.94;;;-2.17;46.57
73338;BME280;61575;49.908;35.556;2023-02-23T11:31:51;99991.06;;;-2.29;46.24
73338;BME280;61575;49.908;35.556;2023-02-23T11:35:33;99987.91;;;-2.36;45.40
73338;BME280;61575;49.908;35.556;2023-02-23T11:38:35;99982.66;;;-2.36;46.15
73338;BME280;61575;49.908;35.556;2023-02-23T11:41:37;99983.03;;;-2.44;47.22
73338;BME280;61575;49.908;35.556;2023-02-23T11:44:39;99983.19;;;-2.47;46.88
73338;BME280;61575;49.908;35.556;2023-02-23T11:48:14;99989.38;;;-2.48;46.71
73338;BME280;61575;49.908;35.556;2023-02-23T11:54:32;99992.81;;;-2.64;46.46
73338;BME280;61575;49.908;35.556;2023-02-23T11:57:35;99992.00;;;-2.30;46.98
73338;BME280;61575;49.908;35.556;2023-02-23T12:00:37;99988.22;;;-2.25;46.54
73338;BME280;61575;49.908;35.556;2023-02-23T12:03:45;99989.22;;;-2.45;46.33
73338;BME280;61575;49.908;35.556;2023-02-23T12:06:49;99990.91;;;-2.61;46.99
73338;BME280;61575;49.908;35.556;2023-02-23T12:09:59;99992.69;;;-2.44;46.58
73338;BME280;61575;49.908;35.556;2023-02-23T12:16:19;100000.28;;;-2.38;46.87
73338;BME280;61575;49.908;35.556;2023-02-23T12:19:39;99993.38;;;-2.41;47.37
73338;BME280;61575;49.908;35.556;2023-02-23T12:22:55;100000.81;;;-2.31;47.34
73338;BME280;61575;49.908;35.556;2023-02-23T12:26:26;100000.03;;;-2.51;46.10
73338;BME280;61575;49.908;35.556;2023-02-23T12:32:47;100003.69;;;-2.36;47.31
73338;BME280;61575;49.908;35.556;2023-02-23T12:35:56;99996.72;;;-2.54;46.98
73338;BME280;61575;49.908;35.556;2023-02-23T12:39:14;100004.97;;;-2.62;47.42
73338;BME280;61575;49.908;35.556;2023-02-23T12:45:45;100000.13;;;-2.35;47.49
73338;BME280;61575;49.908;35.556;2023-02-23T12:52:24;100003.75;;;-2.55;47.19
73338;BME280;61575;49.908;35.556;2023-02-23T12:55:38;100010.31;;;-2.63;47.46
73338;BME280;61575;49.908;35.556;2023-02-23T13:01:58;100011.84;;;-2.59;47.27
73338;BME280;61575;49.908;35.556;2023-02-23T13:05:13;100012.84;;;-2.62;47.37
73338;BME280;61575;49.908;35.556;2023-02-23T13:29:06;100013.13;;;-3.04;47.93
73338;BME280;61575;49.908;35.556;2023-02-23T13:32:16;100017.09;;;-2.95;48.18
73338;BME280;61575;49.908;35.556;2023-02-23T13:35:19;100015.63;;;-3.01;47.65
73338;BME280;61575;49.908;35.556;2023-02-23T13:38:35;100015.56;;;-3.18;47.33
73338;BME280;61575;49.908;35.556;2023-02-23T13:45:28;100012.50;;;-3.28;48.07
73338;BME280;61575;49.908;35.556;2023-02-23T13:52:07;100027.06;;;-3.40;48.47
73338;BME280;61575;49.908;35.556;2023-02-23T13:58:29;100032.28;;;-3.58;47.58
73338;BME280;61575;49.908;35.556;2023-02-23T14:01:35;100031.28;;;-3.56;47.70
73338;BME280;61575;49.908;35.556;2023-02-23T14:04:38;100030.59;;;-3.41;47.95
73338;BME280;61575;49.908;35.556;2023-02-23T14:07:46;100023.63;;;-3.42;48.64
73338;BME280;61575;49.908;35.556;2023-02-23T14:10:49;100038.25;;;-3.55;48.99
73338;BME280;61575;49.908;35.556;2023-02-23T14:13:59;100044.91;;;-3.48;48.81
73338;BME280;61575;49.908;35.556;2023-02-23T14:20:20;100032.06;;;-3.54;49.10
73338;BME280;61575;49.908;35.556;2023-02-23T14:23:34;100035.28;;;-3.47;48.96
73338;BME280;61575;49.908;35.556;2023-02-23T14:33:55;100038.63;;;-3.44;49.52
73338;BME280;61575;49.908;35.556;2023-02-23T14:36:53;100029.03;;;-3.45;49.54
73338;BME280;61575;49.908;35.556;2023-02-23T14:40:04;100034.78;;;-3.36;49.82
73338;BME280;61575;49.908;35.556;2023-02-23T14:43:30;100040.66;;;-3.50;49.68
73338;BME280;61575;49.908;35.556;2023-02-23T14:46:34;100043.75;;;-3.61;49.44
73338;BME280;61575;49.908;35.556;2023-02-23T14:49:42;100038.19;;;-3.74;49.80
73338;BME280;61575;49.908;35.556;2023-02-23T14:52:45;100042.78;;;-3.79;49.93
73338;BME280;61575;49.908;35.556;2023-02-23T14:55:48;100050.22;;;-3.88;50.30
73338;BME280;61575;49.908;35.556;2023-02-23T14:58:52;100055.06;;;-3.99;50.50
73338;BME280;61575;49.908;35.556;2023-02-23T15:01:58;100048.13;;;-4.00;50.38
73338;BME280;61575;49.908;35.556;2023-02-23T15:05:14;100057.16;;;-4.08;50.53
73338;BME280;61575;49.908;35.556;2023-02-23T15:08:19;100058.28;;;-4.13;51.85
73338;BME280;61575;49.908;35.556;2023-02-23T15:11:22;100061.09;;;-4.18;51.69
73338;BME280;61575;49.908;35.556;2023-02-23T15:14:24;100066.72;;;-4.27;52.34
73338;BME280;61575;49.908;35.556;2023-02-23T15:17:31;100065.25;;;-4.34;52.98
73338;BME280;61575;49.908;35.556;2023-02-23T15:20:34;100072.47;;;-4.39;53.46
73338;BME280;61575;49.908;35.556;2023-02-23T15:23:35;100071.00;;;-4.46;53.88
73338;BME280;61575;49.908;35.556;2023-02-23T15:26:40;100079.00;;;-4.49;53.57
73338;BME280;61575;49.908;35.556;2023-02-23T15:29:42;100075.75;;;-4.56;54.39
73338;BME280;61575;49.908;35.556;2023-02-23T15:32:44;100070.81;;;-4.63;54.48
73338;BME280;61575;49.908;35.556;2023-02-23T15:35:49;100085.88;;;-4.69;54.20
73338;BME280;61575;49.908;35.556;2023-02-23T15:38:55;100074.66;;;-4.72;54.60
73338;BME280;61575;49.908;35.556;2023-02-23T15:41:58;100078.69;;;-4.85;55.09
73338;BME280;61575;49.908;35.556;2023-02-23T15:45:04;100087.13;;;-5.01;55.75
73338;BME280;61575;49.908;35.556;2023-02-23T15:48:17;100078.66;;;-5.07;55.19
73338;BME280;61575;49.908;35.556;2023-02-23T15:51:31;100082.19;;;-5.08;55.82
73338;BME280;61575;49.908;35.556;2023-02-23T15:57:57;100086.16;;;-5.21;56.43
73338;BME280;61575;49.908;35.556;2023-02-23T16:01:10;100083.03;;;-5.31;56.46
73338;BME280;61575;49.908;35.556;2023-02-23T16:04:15;100086.00;;;-5.40;57.02
73338;BME280;61575;49.908;35.556;2023-02-23T16:07:20;100083.66;;;-5.48;57.29
73338;BME280;61575;49.908;35.556;2023-02-23T16:10:24;100088.19;;;-5.53;56.88
73338;BME280;61575;49.908;35.556;2023-02-23T16:13:28;100092.06;;;-5.63;57.13
73338;BME280;61575;49.908;35.556;2023-02-23T16:16:33;100107.16;;;-5.71;57.94
73338;BME280;61575;49.908;35.556;2023-02-23T16:19:35;100103.16;;;-5.81;57.95
73338;BME280;61575;49.908;35.556;2023-02-23T16:22:43;100097.44;;;-5.92;58.29
73338;BME280;61575;49.908;35.556;2023-02-23T16:25:51;100097.97;;;-6.08;59.32
73338;BME280;61575;49.908;35.556;2023-02-23T16:28:56;100106.06;;;-6.15;60.05
73338;BME280;61575;49.908;35.556;2023-02-23T16:32:01;100102.69;;;-6.19;60.10
73338;BME280;61575;49.908;35.556;2023-02-23T16:35:22;100103.03;;;-6.29;60.36
73338;BME280;61575;49.908;35.556;2023-02-23T16:38:26;100100.00;;;-6.42;60.59
73338;BME280;61575;49.908;35.556;2023-02-23T16:41:30;100093.16;;;-6.46;60.35
73338;BME280;61575;49.908;35.556;2023-02-23T16:44:32;100097.06;;;-6.59;61.23
73338;BME280;61575;49.908;35.556;2023-02-23T16:47:45;100098.88;;;-6.61;60.81
73338;BME280;61575;49.908;35.556;2023-02-23T16:50:50;100097.31;;;-6.67;61.17
73338;BME280;61575;49.908;35.556;2023-02-23T16:53:52;100099.16;;;-6.71;61.23
73338;BME280;61575;49.908;35.556;2023-02-23T16:56:54;100091.63;;;-6.80;61.67
73338;BME280;61575;49.908;35.556;2023-02-23T16:59:56;100097.78;;;-6.82;61.67
73338;BME280;61575;49.908;35.556;2023-02-23T17:02:59;100098.34;;;-6.99;62.25
73338;BME280;61575;49.908;35.556;2023-02-23T17:06:01;100090.69;;;-7.05;62.52
73338;BME280;61575;49.908;35.556;2023-02-23T17:09:03;100088.22;;;-7.10;62.55
73338;BME280;61575;49.908;35.556;2023-02-23T17:12:05;100086.47;;;-7.09;62.54
73338;BME280;61575;49.908;35.556;2023-02-23T17:15:14;100094.28;;;-7.09;62.15
73338;BME280;61575;49.908;35.556;2023-02-23T17:18:20;100091.84;;;-7.15;62.09
73338;BME280;61575;49.908;35.556;2023-02-23T17:21:29;100083.41;;;-7.23;62.25
73338;BME280;61575;49.908;35.556;2023-02-23T17:24:32;100086.38;;;-7.36;62.53
73338;BME280;61575;49.908;35.556;2023-02-23T17:27:34;100085.78;;;-7.45;63.04
73338;BME280;61575;49.908;35.556;2023-02-23T17:30:36;100082.44;;;-7.50;63.15
73338;BME280;61575;49.908;35.556;2023-02-23T17:33:40;100074.75;;;-7.55;63.46
73338;BME280;61575;49.908;35.556;2023-02-23T17:36:42;100074.22;;;-7.68;63.80
73338;BME280;61575;49.908;35.556;2023-02-23T17:39:45;100076.97;;;-7.72;64.31
73338;BME280;61575;49.908;35.556;2023-02-23T17:42:50;100079.63;;;-7.74;64.13
73338;BME280;61575;49.908;35.556;2023-02-23T17:45:52;100071.84;;;-7.75;63.77
73338;BME280;61575;49.908;35.556;2023-02-23T17:48:57;100077.16;;;-7.80;64.42
73338;BME280;61575;49.908;35.556;2023-02-23T17:51:59;100070.22;;;-7.79;64.07
73338;BME280;61575;49.908;35.556;2023-02-23T17:55:03;100072.16;;;-7.87;64.21
73338;BME280;61575;49.908;35.556;2023-02-23T17:58:05;100072.41;;;-7.97;64.53
73338;BME280;61575;49.908;35.556;2023-02-23T18:01:07;100081.97;;;-7.97;64.60
73338;BME280;61575;49.908;35.556;2023-02-23T18:04:10;100077.69;;;-8.00;64.20
73338;BME280;61575;49.908;35.556;2023-02-23T18:07:13;100086.34;;;-7.98;64.28